sensor_id;sensor_type;location;lat;lon;timestamp;pressure;altitude;pressure_sealevel;temperature;humidity
63399;BME280;49533;-34.520;150.798;2023-04-09T00:01:37;99479.19;;;20.71;37.18
63399;BME280;49533;-34.520;150.798;2023-04-09T00:04:04;99459.91;;;20.60;37.57
63399;BME280;49533;-34.520;150.798;2023-04-09T00:06:31;99494.91;;;20.92;37.63
63399;BME280;49533;-34.520;150.798;2023-04-09T00:08:58;99503.53;;;20.97;36.92
63399;BME280;49533;-34.520;150.798;2023-04-09T00:11:25;99499.56;;;21.02;36.74
63399;BME280;49533;-34.520;150.798;2023-04-09T00:13:52;99492.09;;;20.99;36.75
63399;BME280;49533;-34.520;150.798;2023-04-09T00:16:19;99482.66;;;20.93;36.74
63399;BME280;49533;-34.520;150.798;2023-04-09T00:18:46;99496.81;;;21.02;36.54
63399;BME280;49533;-34.520;150.798;2023-04-09T00:21:13;99486.59;;;20.92;36.84
63399;BME280;49533;-34.520;150.798;2023-04-09T00:23:42;99471.63;;;20.85;37.12
63399;BME280;49533;-34.520;150.798;2023-04-09T00:26:09;99501.13;;;21.06;36.80
63399;BME280;49533;-34.520;150.798;2023-04-09T00:28:36;99446.09;;;20.67;36.81
63399;BME280;49533;-34.520;150.798;2023-04-09T00:31:04;99481.06;;;20.95;36.98
63399;BME280;49533;-34.520;150.798;2023-04-09T00:33:31;99451.16;;;20.76;37.15
63399;BME280;49533;-34.520;150.798;2023-04-09T00:35:58;99500.31;;;21.06;36.94
63399;BME280;49533;-34.520;150.798;2023-04-09T00:38:25;99495.22;;;21.04;36.76
63399;BME280;49533;-34.520;150.798;2023-04-09T00:40:52;99510.91;;;21.18;36.83
63399;BME280;49533;-34.520;150.798;2023-04-09T00:43:19;99437.75;;;20.78;36.86
63399;BME280;49533;-34.520;150.798;2023-04-09T00:45:46;99446.78;;;20.85;36.61
63399;BME280;49533;-34.520;150.798;2023-04-09T00:48:15;99490.41;;;21.19;36.43
63399;BME280;49533;-34.520;150.798;2023-04-09T00:50:42;99431.09;;;20.72;36.35
63399;BME280;49533;-34.520;150.798;2023-04-09T00:53:10;99494.34;;;21.18;36.54
63399;BME280;49533;-34.520;150.798;2023-04-09T00:55:39;99493.19;;;21.12;36.43
63399;BME280;49533;-34.520;150.798;2023-04-09T00:58:06;99497.94;;;21.12;36.16
63399;BME280;49533;-34.520;150.798;2023-04-09T01:00:34;99469.22;;;20.91;36.50
63399;BME280;49533;-34.520;150.798;2023-04-09T01:03:03;99473.53;;;21.03;36.49
63399;BME280;49533;-34.520;150.798;2023-04-09T01:05:41;99446.78;;;20.89;36.30
63399;BME280;49533;-34.520;150.798;2023-04-09T01:08:19;99469.59;;;21.04;36.66
63399;BME280;49533;-34.520;150.798;2023-04-09T01:11:01;99487.25;;;21.17;36.87
63399;BME280;49533;-34.520;150.798;2023-04-09T01:13:54;99490.41;;;21.19;36.76
63399;BME280;49533;-34.520;150.798;2023-04-09T01:16:24;99454.19;;;21.03;36.44
63399;BME280;49533;-34.520;150.798;2023-04-09T01:19:00;99473.03;;;21.19;36.90
63399;BME280;49533;-34.520;150.798;2023-04-09T01:21:31;99474.66;;;21.13;36.91
63399;BME280;49533;-34.520;150.798;2023-04-09T01:24:17;99439.28;;;20.90;36.84
63399;BME280;49533;-34.520;150.798;2023-04-09T01:26:57;99448.31;;;20.97;36.58
63399;BME280;49533;-34.520;150.798;2023-04-09T01:29:30;99475.00;;;21.18;36.42
63399;BME280;49533;-34.520;150.798;2023-04-09T01:31:59;99467.16;;;21.13;36.34
63399;BME280;49533;-34.520;150.798;2023-04-09T01:34:28;99476.16;;;21.21;36.59
63399;BME280;49533;-34.520;150.798;2023-04-09T01:36:57;99478.53;;;21.22;37.03
63399;BME280;49533;-34.520;150.798;2023-04-09T01:39:26;99460.81;;;21.16;36.28
63399;BME280;49533;-34.520;150.798;2023-04-09T01:41:54;99478.53;;;21.22;36.47
63399;BME280;49533;-34.520;150.798;2023-04-09T01:44:23;99449.44;;;21.07;36.39
63399;BME280;49533;-34.520;150.798;2023-04-09T01:46:51;99431.31;;;21.02;36.61
63399;BME280;49533;-34.520;150.798;2023-04-09T01:49:21;99469.06;;;21.23;36.71
63399;BME280;49533;-34.520;150.798;2023-04-09T01:51:48;99471.41;;;21.25;36.29
63399;BME280;49533;-34.520;150.798;2023-04-09T01:54:16;99470.25;;;21.22;35.31
63399;BME280;49533;-34.520;150.798;2023-04-09T01:56:44;99449.78;;;21.13;35.21
63399;BME280;49533;-34.520;150.798;2023-04-09T01:59:12;99461.97;;;21.22;36.14
63399;BME280;49533;-34.520;150.798;2023-04-09T02:01:46;99426.97;;;21.05;35.94
63399;BME280;49533;-34.520;150.798;2023-04-09T02:04:25;99461.59;;;21.20;35.91
63399;BME280;49533;-34.520;150.798;2023-04-09T02:06:59;99422.72;;;20.86;36.13
63399;BME280;49533;-34.520;150.798;2023-04-09T02:09:30;99437.59;;;21.10;34.46
63399;BME280;49533;-34.520;150.798;2023-04-09T02:11:59;99392.38;;;20.82;34.93
63399;BME280;49533;-34.520;150.798;2023-04-09T02:14:29;99388.47;;;20.80;34.89
63399;BME280;49533;-34.520;150.798;2023-04-09T02:16:58;99449.31;;;21.21;34.53
63399;BME280;49533;-34.520;150.798;2023-04-09T02:19:38;99438.34;;;21.14;35.30
63399;BME280;49533;-34.520;150.798;2023-04-09T02:22:05;99449.38;;;21.18;35.35
63399;BME280;49533;-34.520;150.798;2023-04-09T02:24:32;99406.53;;;20.92;34.76
63399;BME280;49533;-34.520;150.798;2023-04-09T02:26:59;99428.16;;;21.04;33.94
63399;BME280;49533;-34.520;150.798;2023-04-09T02:29:27;99443.84;;;21.18;34.75
63399;BME280;49533;-34.520;150.798;2023-04-09T02:31:54;99447.72;;;21.24;34.78
63399;BME280;49533;-34.520;150.798;2023-04-09T02:34:22;99402.19;;;20.94;34.96
63399;BME280;49533;-34.520;150.798;2023-04-09T02:36:49;99411.59;;;21.04;35.15
63399;BME280;49533;-34.520;150.798;2023-04-09T02:39:16;99325.13;;;20.48;34.76
63399;BME280;49533;-34.520;150.798;2023-04-09T02:41:44;99413.16;;;21.05;34.79
63399;BME280;49533;-34.520;150.798;2023-04-09T02:44:11;99414.31;;;21.08;34.99
63399;BME280;49533;-34.520;150.798;2023-04-09T02:46:39;99387.56;;;20.97;34.85
63399;BME280;49533;-34.520;150.798;2023-04-09T02:49:06;99389.53;;;20.97;35.13
63399;BME280;49533;-34.520;150.798;2023-04-09T02:51:34;99415.00;;;21.22;33.63
63399;BME280;49533;-34.520;150.798;2023-04-09T02:54:02;99389.50;;;21.04;34.08
63399;BME280;49533;-34.520;150.798;2023-04-09T02:56:29;99417.34;;;21.27;34.02
63399;BME280;49533;-34.520;150.798;2023-04-09T02:58:56;99404.38;;;21.17;33.54
63399;BME280;49533;-34.520;150.798;2023-04-09T03:01:24;99404.34;;;21.24;33.69
63399;BME280;49533;-34.520;150.798;2023-04-09T03:03:51;99415.41;;;21.24;34.36
63399;BME280;49533;-34.520;150.798;2023-04-09T03:06:18;99379.25;;;21.01;34.23
63399;BME280;49533;-34.520;150.798;2023-04-09T03:08:46;99410.66;;;21.21;34.22
63399;BME280;49533;-34.520;150.798;2023-04-09T03:11:13;99415.41;;;21.24;34.07
63399;BME280;49533;-34.520;150.798;2023-04-09T03:13:41;99369.84;;;20.91;34.44
63399;BME280;49533;-34.520;150.798;2023-04-09T03:16:08;99409.09;;;21.20;34.17
63399;BME280;49533;-34.520;150.798;2023-04-09T03:18:35;99408.28;;;21.23;34.21
63399;BME280;49533;-34.520;150.798;2023-04-09T03:21:05;99416.19;;;21.21;34.44
63399;BME280;49533;-34.520;150.798;2023-04-09T03:23:32;99411.81;;;21.24;34.74
63399;BME280;49533;-34.520;150.798;2023-04-09T03:26:02;99393.69;;;21.23;34.46
63399;BME280;49533;-34.520;150.798;2023-04-09T03:28:30;99387.00;;;21.20;34.12
63399;BME280;49533;-34.520;150.798;2023-04-09T03:30:57;99392.53;;;21.20;34.45
63399;BME280;49533;-34.520;150.798;2023-04-09T03:33:24;99387.81;;;21.17;33.62
63399;BME280;49533;-34.520;150.798;2023-04-09T03:35:51;99387.00;;;21.20;33.44
63399;BME280;49533;-34.520;150.798;2023-04-09T03:38:19;99337.56;;;20.81;34.14
63399;BME280;49533;-34.520;150.798;2023-04-09T03:40:46;99385.88;;;21.14;33.93
63399;BME280;49533;-34.520;150.798;2023-04-09T03:43:14;99391.75;;;21.16;34.23
63399;BME280;49533;-34.520;150.798;2023-04-09T03:45:41;99374.44;;;21.09;34.03
63399;BME280;49533;-34.520;150.798;2023-04-09T03:48:08;99351.63;;;21.01;33.66
63399;BME280;49533;-34.520;150.798;2023-04-09T03:50:39;99391.31;;;21.21;33.73
63399;BME280;49533;-34.520;150.798;2023-04-09T03:53:06;99356.38;;;21.00;33.80
63399;BME280;49533;-34.520;150.798;2023-04-09T03:55:33;99381.50;;;21.17;33.94
63399;BME280;49533;-34.520;150.798;2023-04-09T03:58:01;99383.84;;;21.18;34.41
63399;BME280;49533;-34.520;150.798;2023-04-09T04:00:28;99363.06;;;21.03;33.64
63399;BME280;49533;-34.520;150.798;2023-04-09T04:02:55;99367.03;;;21.02;33.69
63399;BME280;49533;-34.520;150.798;2023-04-09T04:05:23;99374.44;;;21.12;34.18
63399;BME280;49533;-34.520;150.798;2023-04-09T04:07:51;99255.50;;;20.29;34.36
63399;BME280;49533;-34.520;150.798;2023-04-09T04:10:19;99402.00;;;21.19;34.73
63399;BME280;49533;-34.520;150.798;2023-04-09T04:12:46;99308.88;;;20.68;34.05
63399;BME280;49533;-34.520;150.798;2023-04-09T04:15:14;99365.78;;;21.10;33.88
63399;BME280;49533;-34.520;150.798;2023-04-09T04:17:41;99397.63;;;21.25;33.50
63399;BME280;49533;-34.520;150.798;2023-04-09T04:20:08;99372.50;;;21.05;33.65
63399;BME280;49533;-34.520;150.798;2023-04-09T04:22:36;99404.34;;;21.21;34.05
63399;BME280;49533;-34.520;150.798;2023-04-09T04:25:03;99405.13;;;21.21;33.81
63399;BME280;49533;-34.520;150.798;2023-04-09T04:27:31;99412.19;;;21.30;33.87
63399;BME280;49533;-34.520;150.798;2023-04-09T04:29:58;99398.78;;;21.28;33.62
63399;BME280;49533;-34.520;150.798;2023-04-09T04:32:27;99359.13;;;21.00;33.25
63399;BME280;49533;-34.520;150.798;2023-04-09T04:34:54;99402.72;;;21.31;33.54
63399;BME280;49533;-34.520;150.798;2023-04-09T04:37:21;99405.09;;;21.28;33.73
63399;BME280;49533;-34.520;150.798;2023-04-09T04:39:48;99376.78;;;21.14;34.38
63399;BME280;49533;-34.520;150.798;2023-04-09T04:42:16;99340.63;;;20.97;34.38
63399;BME280;49533;-34.520;150.798;2023-04-09T04:44:44;99395.63;;;21.30;34.10
63399;BME280;49533;-34.520;150.798;2023-04-09T04:47:11;99370.03;;;21.18;33.22
63399;BME280;49533;-34.520;150.798;2023-04-09T04:49:38;99394.47;;;21.23;33.47
63399;BME280;49533;-34.520;150.798;2023-04-09T04:52:05;99360.22;;;21.14;33.24
63399;BME280;49533;-34.520;150.798;2023-04-09T04:54:33;99371.25;;;21.14;33.18
63399;BME280;49533;-34.520;150.798;2023-04-09T04:57:00;99381.44;;;21.27;33.39
63399;BME280;49533;-34.520;150.798;2023-04-09T04:59:27;99387.72;;;21.28;33.41
63399;BME280;49533;-34.520;150.798;2023-04-09T05:01:54;99398.00;;;21.27;33.98
63399;BME280;49533;-34.520;150.798;2023-04-09T05:04:21;99401.16;;;21.26;34.37
63399;BME280;49533;-34.520;150.798;2023-04-09T05:06:48;99393.72;;;21.19;33.95
63399;BME280;49533;-34.520;150.798;2023-04-09T05:09:16;99396.41;;;21.26;33.83
63399;BME280;49533;-34.520;150.798;2023-04-09T05:11:43;99399.59;;;21.21;33.97
63399;BME280;49533;-34.520;150.798;2023-04-09T05:14:10;99387.72;;;21.28;33.81
63399;BME280;49533;-34.520;150.798;2023-04-09T05:16:39;99400.38;;;21.25;33.46
63399;BME280;49533;-34.520;150.798;2023-04-09T05:19:06;99411.44;;;21.25;33.46
63399;BME280;49533;-34.520;150.798;2023-04-09T05:21:33;99384.75;;;21.04;33.11
63399;BME280;49533;-34.520;150.798;2023-04-09T05:24:00;99383.97;;;21.04;33.75
63399;BME280;49533;-34.520;150.798;2023-04-09T05:26:28;99407.47;;;21.26;33.53
63399;BME280;49533;-34.520;150.798;2023-04-09T05:28:55;99409.84;;;21.28;33.25
63399;BME280;49533;-34.520;150.798;2023-04-09T05:31:22;99391.38;;;21.18;32.99
63399;BME280;49533;-34.520;150.798;2023-04-09T05:33:49;99414.56;;;21.27;33.15
63399;BME280;49533;-34.520;150.798;2023-04-09T05:36:18;99380.41;;;21.03;33.51
63399;BME280;49533;-34.520;150.798;2023-04-09T05:38:45;99416.16;;;21.25;33.07
63399;BME280;49533;-34.520;150.798;2023-04-09T05:41:13;99296.34;;;20.52;33.48
63399;BME280;49533;-34.520;150.798;2023-04-09T05:43:40;99402.03;;;21.16;34.08
63399;BME280;49533;-34.520;150.798;2023-04-09T05:46:08;99413.78;;;21.27;33.54
63399;BME280;49533;-34.520;150.798;2023-04-09T05:48:35;99415.81;;;21.19;33.38
63399;BME280;49533;-34.520;150.798;2023-04-09T05:51:02;99425.25;;;21.25;32.89
63399;BME280;49533;-34.520;150.798;2023-04-09T05:53:30;99424.03;;;21.26;33.41
63399;BME280;49533;-34.520;150.798;2023-04-09T05:55:57;99322.38;;;20.55;33.36
63399;BME280;49533;-34.520;150.798;2023-04-09T05:58:24;99419.38;;;21.16;33.38
63399;BME280;49533;-34.520;150.798;2023-04-09T06:00:52;99428.78;;;21.26;33.46
63399;BME280;49533;-34.520;150.798;2023-04-09T06:03:19;99431.97;;;21.24;33.24
63399;BME280;49533;-34.520;150.798;2023-04-09T06:05:46;99422.94;;;21.17;33.60
63399;BME280;49533;-34.520;150.798;2023-04-09T06:08:13;99375.44;;;20.84;33.07
63399;BME280;49533;-34.520;150.798;2023-04-09T06:10:40;99391.91;;;20.95;32.94
63399;BME280;49533;-34.520;150.798;2023-04-09T06:13:09;99372.28;;;20.82;33.20
63399;BME280;49533;-34.520;150.798;2023-04-09T06:15:37;99430.41;;;21.20;33.23
63399;BME280;49533;-34.520;150.798;2023-04-09T06:18:05;99437.50;;;21.21;32.92
63399;BME280;49533;-34.520;150.798;2023-04-09T06:20:32;99430.41;;;21.20;33.60
63399;BME280;49533;-34.520;150.798;2023-04-09T06:23:00;99402.56;;;20.93;33.57
63399;BME280;49533;-34.520;150.798;2023-04-09T06:25:27;99417.47;;;21.06;33.04
63399;BME280;49533;-34.520;150.798;2023-04-09T06:27:54;99372.31;;;20.75;33.39
63399;BME280;49533;-34.520;150.798;2023-04-09T06:30:21;99390.44;;;20.79;33.13
63399;BME280;49533;-34.520;150.798;2023-04-09T06:32:49;99385.69;;;20.80;33.54
63399;BME280;49533;-34.520;150.798;2023-04-09T06:35:17;99435.22;;;21.12;33.28
63399;BME280;49533;-34.520;150.798;2023-04-09T06:37:44;99409.66;;;20.94;33.43
63399;BME280;49533;-34.520;150.798;2023-04-09T06:40:11;99446.25;;;21.12;33.12
63399;BME280;49533;-34.520;150.798;2023-04-09T06:42:38;99422.28;;;20.95;33.97
63399;BME280;49533;-34.520;150.798;2023-04-09T06:45:06;99450.19;;;21.11;33.07
63399;BME280;49533;-34.520;150.798;2023-04-09T06:47:34;99329.66;;;20.20;32.99
63399;BME280;49533;-34.520;150.798;2023-04-09T06:50:02;99451.81;;;21.05;33.28
63399;BME280;49533;-34.520;150.798;2023-04-09T06:52:29;99397.63;;;20.62;33.44
63399;BME280;49533;-34.520;150.798;2023-04-09T06:54:56;99472.34;;;21.04;33.10
63399;BME280;49533;-34.520;150.798;2023-04-09T06:57:24;99457.44;;;20.83;33.33
63399;BME280;49533;-34.520;150.798;2023-04-09T06:59:51;99420.91;;;20.61;33.16
63399;BME280;49533;-34.520;150.798;2023-04-09T07:02:18;99480.28;;;20.95;33.01
63399;BME280;49533;-34.520;150.798;2023-04-09T07:04:45;99442.53;;;20.74;32.88
63399;BME280;49533;-34.520;150.798;2023-04-09T07:07:12;99472.41;;;20.90;33.56
63399;BME280;49533;-34.520;150.798;2023-04-09T07:09:39;99444.16;;;20.60;33.82
63399;BME280;49533;-34.520;150.798;2023-04-09T07:12:07;99441.03;;;20.55;33.55
63399;BME280;49533;-34.520;150.798;2023-04-09T07:14:34;99485.03;;;20.83;33.86
63399;BME280;49533;-34.520;150.798;2023-04-09T07:17:01;99452.84;;;20.52;34.38
63399;BME280;49533;-34.520;150.798;2023-04-09T07:19:28;99455.22;;;20.57;34.57
63399;BME280;49533;-34.520;150.798;2023-04-09T07:21:56;99494.16;;;20.77;34.16
63399;BME280;49533;-34.520;150.798;2023-04-09T07:24:23;99490.22;;;20.81;34.70
63399;BME280;49533;-34.520;150.798;2023-04-09T07:26:50;99502.41;;;20.84;35.20
63399;BME280;49533;-34.520;150.798;2023-04-09T07:29:18;99503.97;;;20.85;35.51
63399;BME280;49533;-34.520;150.798;2023-04-09T07:31:47;99506.34;;;20.87;35.63
63399;BME280;49533;-34.520;150.798;2023-04-09T07:34:14;99513.81;;;20.86;35.37
63399;BME280;49533;-34.520;150.798;2023-04-09T07:36:42;99457.22;;;20.46;35.50
63399;BME280;49533;-34.520;150.798;2023-04-09T07:39:09;99472.53;;;20.54;35.64
63399;BME280;49533;-34.520;150.798;2023-04-09T07:41:36;99505.22;;;20.77;35.04
63399;BME280;49533;-34.520;150.798;2023-04-09T07:44:03;99526.84;;;20.85;35.29
63399;BME280;49533;-34.520;150.798;2023-04-09T07:46:31;99530.81;;;20.84;35.41
63399;BME280;49533;-34.520;150.798;2023-04-09T07:48:58;99530.03;;;20.84;35.22
63399;BME280;49533;-34.520;150.798;2023-04-09T07:51:25;99511.91;;;20.72;34.56
63399;BME280;49533;-34.520;150.798;2023-04-09T07:53:53;99496.97;;;20.52;34.84
63399;BME280;49533;-34.520;150.798;2023-04-09T07:56:21;99477.31;;;20.39;35.15
63399;BME280;49533;-34.520;150.798;2023-04-09T07:58:49;99467.09;;;20.32;35.24
63399;BME280;49533;-34.520;150.798;2023-04-09T08:01:16;99522.22;;;20.61;35.16
63399;BME280;49533;-34.520;150.798;2023-04-09T08:03:44;99508.03;;;20.52;34.80
63399;BME280;49533;-34.520;150.798;2023-04-09T08:06:11;99550.97;;;20.67;34.92
63399;BME280;49533;-34.520;150.798;2023-04-09T08:08:38;99534.06;;;20.54;35.10
63399;BME280;49533;-34.520;150.798;2023-04-09T08:11:06;99552.59;;;20.61;34.89
63399;BME280;49533;-34.520;150.798;2023-04-09T08:13:33;99509.66;;;20.31;35.00
63399;BME280;49533;-34.520;150.798;2023-04-09T08:16:01;99524.59;;;20.37;34.77
63399;BME280;49533;-34.520;150.798;2023-04-09T08:18:29;99583.72;;;20.69;34.90
63399;BME280;49533;-34.520;150.798;2023-04-09T08:20:56;99529.34;;;20.30;34.81
63399;BME280;49533;-34.520;150.798;2023-04-09T08:23:23;99596.31;;;20.62;35.11
63399;BME280;49533;-34.520;150.798;2023-04-09T08:25:51;99593.19;;;20.64;34.91
63399;BME280;49533;-34.520;150.798;2023-04-09T08:28:19;99598.69;;;20.60;35.38
63399;BME280;49533;-34.520;150.798;2023-04-09T08:30:46;99586.88;;;20.46;35.35
63399;BME280;49533;-34.520;150.798;2023-04-09T08:33:13;99607.38;;;20.48;35.30
63399;BME280;49533;-34.520;150.798;2023-04-09T08:35:41;99628.28;;;20.56;35.45
63399;BME280;49533;-34.520;150.798;2023-04-09T08:38:08;99558.53;;;20.13;35.33
63399;BME280;49533;-34.520;150.798;2023-04-09T08:40:36;99632.22;;;20.48;35.36
63399;BME280;49533;-34.520;150.798;2023-04-09T08:43:05;99632.59;;;20.54;35.52
63399;BME280;49533;-34.520;150.798;2023-04-09T08:45:33;99636.56;;;20.56;35.48
63399;BME280;49533;-34.520;150.798;2023-04-09T08:48:01;99645.22;;;20.55;35.68
63399;BME280;49533;-34.520;150.798;2023-04-09T08:50:31;99621.56;;;20.36;35.46
63399;BME280;49533;-34.520;150.798;2023-04-09T08:53:02;99646.78;;;20.52;35.59
63399;BME280;49533;-34.520;150.798;2023-04-09T08:55:31;99599.09;;;20.19;35.80
63399;BME280;49533;-34.520;150.798;2023-04-09T08:58:03;99620.00;;;20.31;35.70
63399;BME280;49533;-34.520;150.798;2023-04-09T09:00:31;99579.03;;;20.05;35.75
63399;BME280;49533;-34.520;150.798;2023-04-09T09:03:06;99648.75;;;20.45;36.17
63399;BME280;49533;-34.520;150.798;2023-04-09T09:05:36;99618.81;;;20.22;35.90
63399;BME280;49533;-34.520;150.798;2023-04-09T09:08:03;99654.69;;;20.43;35.92
63399;BME280;49533;-34.520;150.798;2023-04-09T09:10:38;99575.88;;;19.92;35.60
63399;BME280;49533;-34.520;150.798;2023-04-09T09:13:17;99617.22;;;20.17;35.85
63399;BME280;49533;-34.520;150.798;2023-04-09T09:15:45;99596.75;;;20.04;35.96
63399;BME280;49533;-34.520;150.798;2023-04-09T09:18:16;99662.16;;;20.35;36.00
63399;BME280;49533;-34.520;150.798;2023-04-09T09:20:44;99653.91;;;20.35;35.97
63399;BME280;49533;-34.520;150.798;2023-04-09T09:23:11;99655.06;;;20.31;35.98
63399;BME280;49533;-34.520;150.798;2023-04-09T09:25:40;99615.25;;;20.07;35.90
63399;BME280;49533;-34.520;150.798;2023-04-09T09:28:10;99659.41;;;20.21;35.85
63399;BME280;49533;-34.520;150.798;2023-04-09T09:30:39;99564.78;;;19.56;35.99
63399;BME280;49533;-34.520;150.798;2023-04-09T09:33:08;99673.19;;;20.21;36.19
63399;BME280;49533;-34.520;150.798;2023-04-09T09:35:48;99621.56;;;19.89;36.45
63399;BME280;49533;-34.520;150.798;2023-04-09T09:38:16;99674.38;;;20.20;36.05
63399;BME280;49533;-34.520;150.798;2023-04-09T09:40:43;99679.50;;;20.18;36.36
63399;BME280;49533;-34.520;150.798;2023-04-09T09:43:12;99652.28;;;19.95;36.34
63399;BME280;49533;-34.520;150.798;2023-04-09T09:45:40;99670.03;;;20.05;36.56
63399;BME280;49533;-34.520;150.798;2023-04-09T09:48:10;99680.66;;;20.13;36.11
63399;BME280;49533;-34.520;150.798;2023-04-09T09:50:39;99612.81;;;19.59;36.33
63399;BME280;49533;-34.520;150.798;2023-04-09T09:53:09;99666.44;;;19.93;36.57
63399;BME280;49533;-34.520;150.798;2023-04-09T09:55:39;99560.75;;;19.25;36.53
63399;BME280;49533;-34.520;150.798;2023-04-09T09:58:16;99648.31;;;19.78;36.55
63399;BME280;49533;-34.520;150.798;2023-04-09T10:00:46;99623.84;;;19.66;36.73
63399;BME280;49533;-34.520;150.798;2023-04-09T10:03:22;99645.94;;;19.73;36.59
63399;BME280;49533;-34.520;150.798;2023-04-09T10:05:51;99630.13;;;19.63;36.60
63399;BME280;49533;-34.520;150.798;2023-04-09T10:08:22;99660.09;;;19.79;36.60
63399;BME280;49533;-34.520;150.798;2023-04-09T10:10:51;99624.59;;;19.52;36.65
63399;BME280;49533;-34.520;150.798;2023-04-09T10:13:24;99691.28;;;19.97;36.60
63399;BME280;49533;-34.520;150.798;2023-04-09T10:15:55;99700.72;;;19.96;36.86
63399;BME280;49533;-34.520;150.798;2023-04-09T10:18:22;99676.28;;;19.80;36.72
63399;BME280;49533;-34.520;150.798;2023-04-09T10:20:57;99699.53;;;19.90;36.97
63399;BME280;49533;-34.520;150.798;2023-04-09T10:23:39;99628.91;;;19.46;36.97
63399;BME280;49533;-34.520;150.798;2023-04-09T10:26:07;99607.63;;;19.36;36.97
63399;BME280;49533;-34.520;150.798;2023-04-09T10:28:36;99665.94;;;19.63;37.25
63399;BME280;49533;-34.520;150.798;2023-04-09T10:31:05;99703.03;;;19.83;37.02
63399;BME280;49533;-34.520;150.798;2023-04-09T10:33:36;99699.88;;;19.81;37.08
63399;BME280;49533;-34.520;150.798;2023-04-09T10:36:06;99702.66;;;19.81;36.91
63399;BME280;49533;-34.520;150.798;2023-04-09T10:38:39;99690.78;;;19.66;37.24
63399;BME280;49533;-34.520;150.798;2023-04-09T10:41:15;99691.19;;;19.68;37.24
63399;BME280;49533;-34.520;150.798;2023-04-09T10:43:48;99709.72;;;19.71;37.21
63399;BME280;49533;-34.520;150.798;2023-04-09T10:46:28;99707.34;;;19.70;37.22
63399;BME280;49533;-34.520;150.798;2023-04-09T10:49:08;99704.97;;;19.68;37.41
63399;BME280;49533;-34.520;150.798;2023-04-09T10:51:37;99690.34;;;19.57;37.19
63399;BME280;49533;-34.520;150.798;2023-04-09T10:54:05;99704.94;;;19.65;37.24
63399;BME280;49533;-34.520;150.798;2023-04-09T10:56:34;99696.63;;;19.58;37.45
63399;BME280;49533;-34.520;150.798;2023-04-09T10:59:01;99599.19;;;18.93;37.54
63399;BME280;49533;-34.520;150.798;2023-04-09T11:01:29;99669.81;;;19.40;37.46
63399;BME280;49533;-34.520;150.798;2023-04-09T11:04:08;99697.81;;;19.57;37.50
63399;BME280;49533;-34.520;150.798;2023-04-09T11:06:39;99692.66;;;19.44;37.47
63399;BME280;49533;-34.520;150.798;2023-04-09T11:09:08;99638.59;;;19.11;37.57
63399;BME280;49533;-34.520;150.798;2023-04-09T11:11:35;99706.47;;;19.51;37.64
63399;BME280;49533;-34.520;150.798;2023-04-09T11:14:02;99648.78;;;19.03;37.70
63399;BME280;49533;-34.520;150.798;2023-04-09T11:16:30;99705.66;;;19.47;37.75
63399;BME280;49533;-34.520;150.798;2023-04-09T11:18:57;99710.75;;;19.45;37.75
63399;BME280;49533;-34.520;150.798;2023-04-09T11:21:26;99699.34;;;19.43;37.84
63399;BME280;49533;-34.520;150.798;2023-04-09T11:23:54;99643.25;;;18.96;37.68
63399;BME280;49533;-34.520;150.798;2023-04-09T11:26:33;99640.13;;;18.98;37.74
63399;BME280;49533;-34.520;150.798;2023-04-09T11:29:06;99700.88;;;19.37;37.81
63399;BME280;49533;-34.520;150.798;2023-04-09T11:31:35;99688.25;;;19.25;37.98
63399;BME280;49533;-34.520;150.798;2023-04-09T11:34:02;99682.72;;;19.22;38.02
63399;BME280;49533;-34.520;150.798;2023-04-09T11:36:29;99693.38;;;19.30;38.11
63399;BME280;49533;-34.520;150.798;2023-04-09T11:39:01;99704.00;;;19.28;38.20
63399;BME280;49533;-34.520;150.798;2023-04-09T11:41:34;99693.34;;;19.27;38.16
63399;BME280;49533;-34.520;150.798;2023-04-09T11:44:03;99681.03;;;19.03;38.09
63399;BME280;49533;-34.520;150.798;2023-04-09T11:46:32;99698.06;;;19.23;38.28
63399;BME280;49533;-34.520;150.798;2023-04-09T11:49:00;99685.78;;;19.09;38.42
63399;BME280;49533;-34.520;150.798;2023-04-09T11:51:27;99700.00;;;19.19;38.42
63399;BME280;49533;-34.520;150.798;2023-04-09T11:54:01;99686.97;;;19.08;38.32
63399;BME280;49533;-34.520;150.798;2023-04-09T11:56:29;99696.84;;;19.17;38.40
63399;BME280;49533;-34.520;150.798;2023-04-09T11:58:58;99687.75;;;19.09;38.58
63399;BME280;49533;-34.520;150.798;2023-04-09T12:01:30;99602.50;;;18.54;38.40
63399;BME280;49533;-34.520;150.798;2023-04-09T12:03:58;99629.63;;;18.59;38.62
63399;BME280;49533;-34.520;150.798;2023-04-09T12:06:26;99694.09;;;19.13;38.51
63399;BME280;49533;-34.520;150.798;2023-04-09T12:08:57;99624.16;;;18.62;38.60
63399;BME280;49533;-34.520;150.798;2023-04-09T12:11:29;99660.06;;;18.77;38.61
63399;BME280;49533;-34.520;150.798;2023-04-09T12:14:00;99702.72;;;19.08;38.74
63399;BME280;49533;-34.520;150.798;2023-04-09T12:16:30;99703.84;;;19.03;38.73
63399;BME280;49533;-34.520;150.798;2023-04-09T12:19:03;99668.69;;;18.79;38.84
63399;BME280;49533;-34.520;150.798;2023-04-09T12:21:51;99710.16;;;19.04;38.75
63399;BME280;49533;-34.520;150.798;2023-04-09T12:24:22;99706.22;;;19.05;38.67
63399;BME280;49533;-34.520;150.798;2023-04-09T12:26:49;99726.66;;;19.00;38.82
63399;BME280;49533;-34.520;150.798;2023-04-09T12:29:18;99654.78;;;18.57;38.60
63399;BME280;49533;-34.520;150.798;2023-04-09T12:31:46;99704.22;;;18.98;38.87
63399;BME280;49533;-34.520;150.798;2023-04-09T12:34:14;99659.94;;;18.66;38.90
63399;BME280;49533;-34.520;150.798;2023-04-09T12:36:41;99703.78;;;18.93;38.93
63399;BME280;49533;-34.520;150.798;2023-04-09T12:39:08;99638.59;;;18.49;38.94